| time (UTC) | temp F | wind direction | speed knots | gust knots | rain 1hr in | rain 24hr in | rain mn in | humidity % | barometer mb |
| 20260902195556 | 92 | 273 | 0.9 | 1.7 | 0.00 | 0.00 | 0.00 | 56 | 1017.0 |
| 20260902195456 | 92 | 248 | 0.9 | 1.7 | 0.00 | 0.00 | 0.00 | 56 | 1017.0 |
| 20260902195057 | 92 | 235 | 1.7 | 2.6 | 0.00 | 0.00 | 0.00 | 57 | 1017.0 |
| 20260902194556 | 92 | 235 | 0.9 | 1.7 | 0.00 | 0.00 | 0.00 | 58 | 1017.0 |
| 20260902194457 | 92 | 304 | 0.9 | 1.7 | 0.00 | 0.00 | 0.00 | 56 | 1017.0 |
| 20260902194056 | 92 | 247 | 1.7 | 2.6 | 0.00 | 0.00 | 0.00 | 56 | 1018.0 |
| 20260902193556 | 92 | 202 | 0.9 | 1.7 | 0.00 | 0.00 | 0.00 | 58 | 1018.0 |
| 20260902193356 | 92 | 250 | 0.9 | 1.7 | 0.00 | 0.00 | 0.00 | 56 | 1018.0 |
| 20260902193057 | 92 | 236 | 1.7 | 2.6 | 0.00 | 0.00 | 0.00 | 55 | 1018.0 |
| 20260902192956 | 92 | 264 | 1.7 | 2.6 | 0.00 | 0.00 | 0.00 | 56 | 1018.0 |
| 20260902192856 | 92 | 237 | 0.9 | 1.7 | 0.00 | 0.00 | 0.00 | 55 | 1018.0 |
| 20260902192757 | 92 | 280 | 1.7 | 5.2 | 0.00 | 0.00 | 0.00 | 55 | 1018.0 |
| 20260902192457 | 92 | 276 | 0.9 | 2.6 | 0.00 | 0.00 | 0.00 | 56 | 1018.0 |
| 20260902192356 | 92 | 255 | 2.6 | 3.5 | 0.00 | 0.00 | 0.00 | 55 | 1018.0 |
| 20260902191857 | 92 | 229 | 0.9 | 1.7 | 0.00 | 0.00 | 0.00 | 58 | 1018.0 |
| 20260902191357 | 92 | 274 | 1.7 | 3.5 | 0.00 | 0.00 | 0.00 | 57 | 1018.0 |
| 20260902190956 | 92 | 235 | 0.0 | 1.7 | 0.00 | 0.00 | 0.00 | 56 | 1018.0 |
| 20260902190856 | 92 | 220 | 0.9 | 1.7 | 0.00 | 0.00 | 0.00 | 56 | 1018.0 |
| 20260902190457 | 92 | 232 | 0.9 | 2.6 | 0.00 | 0.00 | 0.00 | 57 | 1018.0 |
| 20260902190358 | 92 | 196 | 0.9 | 2.6 | 0.00 | 0.00 | 0.00 | 56 | 1018.0 |
| 20260902185857 | 92 | 237 | 0.9 | 0.9 | 0.00 | 0.00 | 0.00 | 57 | 1018.0 |
| 20260902185356 | 92 | 270 | 1.7 | 2.6 | 0.00 | 0.00 | 0.00 | 57 | 1018.0 |
| 20260902184857 | 92 | 277 | 1.7 | 5.2 | 0.00 | 0.00 | 0.00 | 58 | 1018.0 |
| 20260902184757 | 92 | 201 | 0.9 | 2.6 | 0.00 | 0.00 | 0.00 | 59 | 1018.0 |
| 20260902184357 | 91 | 227 | 0.9 | 1.7 | 0.00 | 0.00 | 0.00 | 57 | 1018.0 |
| 20260902183857 | 91 | 219 | 0.9 | 1.7 | 0.00 | 0.00 | 0.00 | 57 | 1018.0 |
| 20260902183657 | 91 | 277 | 1.7 | 3.5 | 0.00 | 0.00 | 0.00 | 57 | 1018.0 |
| 20260902183557 | 91 | 277 | 1.7 | 3.5 | 0.00 | 0.00 | 0.00 | 57 | 1018.0 |
| 20260902183356 | 91 | 273 | 0.9 | 3.5 | 0.00 | 0.00 | 0.00 | 58 | 1018.0 |
| 20260902182956 | 92 | 262 | 1.7 | 3.5 | 0.00 | 0.00 | 0.00 | 57 | 1018.0 |
| 20260902182856 | 91 | 246 | 0.9 | 1.7 | 0.00 | 0.00 | 0.00 | 57 | 1018.0 |
| 20260902182756 | 91 | 257 | 0.9 | 1.7 | 0.00 | 0.00 | 0.00 | 60 | 1018.0 |
| 20260902182357 | 91 | 189 | 0.9 | 1.7 | 0.00 | 0.00 | 0.00 | 59 | 1018.0 |
| 20260902181857 | 91 | 143 | 0.9 | 1.7 | 0.00 | 0.00 | 0.00 | 60 | 1018.0 |
| 20260902181756 | 91 | 262 | 0.9 | 1.7 | 0.00 | 0.00 | 0.00 | 59 | 1018.0 |
| 20260902181357 | 91 | 268 | 1.7 | 1.7 | 0.00 | 0.00 | 0.00 | 58 | 1018.0 |
| 20260902181256 | 91 | 231 | 0.9 | 1.7 | 0.00 | 0.00 | 0.00 | 58 | 1018.0 |
| 20260902180857 | 91 | 271 | 1.7 | 2.6 | 0.00 | 0.00 | 0.00 | 57 | 1018.0 |
| 20260902180757 | 90 | 271 | 1.7 | 3.5 | 0.00 | 0.00 | 0.00 | 60 | 1018.0 |
| 20260902180256 | 90 | 286 | 1.7 | 3.5 | 0.00 | 0.00 | 0.00 | 59 | 1018.0 |
| 20260902180200 | 90 | 243 | 1.7 | 1.7 | 0.00 | 0.00 | 0.00 | 58 | 1018.0 |
| 20260902175657 | 90 | 240 | 1.7 | 3.5 | 0.00 | 0.00 | 0.00 | 61 | 1018.0 |
| 20260902175156 | 90 | 257 | 0.0 | 1.7 | 0.00 | 0.00 | 0.00 | 59 | 1018.0 |
| 20260902174857 | 90 | 191 | 0.9 | 1.7 | 0.00 | 0.00 | 0.00 | 62 | 1018.0 |
| 20260902174657 | 90 | 140 | 0.0 | 1.7 | 0.00 | 0.00 | 0.00 | 61 | 1018.0 |
| 20260902174556 | 90 | 251 | 0.0 | 1.7 | 0.00 | 0.00 | 0.00 | 60 | 1018.0 |
| 20260902174158 | 90 | 312 | 1.7 | 5.2 | 0.00 | 0.00 | 0.00 | 60 | 1018.0 |
| 20260902174058 | 90 | 360 | 0.0 | 0.0 | 0.00 | 0.00 | 0.00 | 60 | 1018.0 |
| 20260902173956 | 90 | 310 | 0.9 | 3.5 | 0.00 | 0.00 | 0.00 | 60 | 1018.0 |
| 20260902173658 | 90 | 114 | 0.9 | 1.7 | 0.00 | 0.00 | 0.00 | 59 | 1018.0 |
| 20260902173558 | 90 | 164 | 0.9 | 2.6 | 0.00 | 0.00 | 0.00 | 60 | 1018.0 |
| 20260902173457 | 90 | 218 | 0.0 | 1.7 | 0.00 | 0.00 | 0.00 | 59 | 1018.0 |
| 20260902173056 | 90 | 220 | 0.0 | 1.7 | 0.00 | 0.00 | 0.00 | 60 | 1019.0 |
| 20260902172757 | 90 | 251 | 1.7 | 2.6 | 0.00 | 0.00 | 0.00 | 60 | 1019.0 |
| 20260902172557 | 90 | 169 | 0.9 | 1.7 | 0.00 | 0.00 | 0.00 | 59 | 1019.0 |
| 20260902172057 | 90 | 171 | 0.9 | 2.6 | 0.00 | 0.00 | 0.00 | 60 | 1019.0 |
| 20260902171856 | 90 | 174 | 1.7 | 2.6 | 0.00 | 0.00 | 0.00 | 60 | 1019.0 |
| 20260902171657 | 90 | 330 | 1.7 | 2.6 | 0.00 | 0.00 | 0.00 | 59 | 1019.0 |
| 20260902171356 | 90 | 266 | 1.7 | 4.3 | 0.00 | 0.00 | 0.00 | 59 | 1019.0 |
| 20260902170857 | 90 | 253 | 0.9 | 2.6 | 0.00 | 0.00 | 0.00 | 61 | 1019.0 |
| 20260902170358 | 90 | 340 | 0.9 | 2.6 | 0.00 | 0.00 | 0.00 | 60 | 1019.0 |
| 20260902165957 | 90 | 292 | 0.9 | 2.6 | 0.00 | 0.00 | 0.00 | 61 | 1019.0 |
| 20260902165856 | 89 | 298 | 2.6 | 3.5 | 0.00 | 0.00 | 0.00 | 61 | 1019.0 |
| 20260902165357 | 89 | 175 | 0.0 | 1.7 | 0.00 | 0.00 | 0.00 | 62 | 1019.0 |
| 20260902164858 | 89 | 242 | 0.9 | 1.7 | 0.00 | 0.00 | 0.00 | 62 | 1019.0 |
| 20260902164657 | 89 | 217 | 1.7 | 2.6 | 0.00 | 0.00 | 0.00 | 62 | 1019.0 |
| 20260902164357 | 89 | 259 | 1.7 | 2.6 | 0.00 | 0.00 | 0.00 | 62 | 1019.0 |
| 20260902163957 | 89 | 241 | 1.7 | 3.5 | 0.00 | 0.00 | 0.00 | 63 | 1019.0 |
| 20260902163857 | 89 | 243 | 1.7 | 3.5 | 0.00 | 0.00 | 0.00 | 63 | 1019.0 |
| 20260902163756 | 89 | 260 | 1.7 | 2.6 | 0.00 | 0.00 | 0.00 | 64 | 1019.0 |
| 20260902163356 | 89 | 260 | 1.7 | 4.3 | 0.00 | 0.00 | 0.00 | 64 | 1019.0 |
| 20260902163257 | 89 | 160 | 0.0 | 0.9 | 0.00 | 0.00 | 0.00 | 65 | 1019.0 |
| 20260902162856 | 89 | 231 | 0.9 | 1.7 | 0.00 | 0.00 | 0.00 | 63 | 1019.0 |
| 20260902162657 | 89 | 246 | 1.7 | 2.6 | 0.00 | 0.00 | 0.00 | 63 | 1019.0 |
| 20260902162356 | 89 | 148 | 0.9 | 2.6 | 0.00 | 0.00 | 0.00 | 64 | 1019.0 |
| 20260902162257 | 89 | 247 | 0.9 | 1.7 | 0.00 | 0.00 | 0.00 | 64 | 1019.0 |
| 20260902161901 | 89 | 242 | 0.9 | 1.7 | 0.00 | 0.00 | 0.00 | 65 | 1019.0 |
| 20260902161556 | 89 | 242 | 1.7 | 2.6 | 0.00 | 0.00 | 0.00 | 65 | 1019.0 |
| 20260902161358 | 89 | 232 | 0.9 | 2.6 | 0.00 | 0.00 | 0.00 | 64 | 1019.0 |
| 20260902160856 | 88 | 263 | 0.9 | 2.6 | 0.00 | 0.00 | 0.00 | 64 | 1019.0 |
| 20260902160456 | 88 | 224 | 0.0 | 0.9 | 0.00 | 0.00 | 0.00 | 64 | 1019.0 |
| 20260902160356 | 88 | 235 | 0.9 | 2.6 | 0.00 | 0.00 | 0.00 | 64 | 1019.0 |
| 20260902155857 | 88 | 251 | 0.9 | 2.6 | 0.00 | 0.00 | 0.00 | 67 | 1019.0 |
| 20260902155359 | 88 | 247 | 1.7 | 3.5 | 0.00 | 0.00 | 0.00 | 65 | 1019.0 |
| 20260902155157 | 88 | 267 | 0.9 | 1.7 | 0.00 | 0.00 | 0.00 | 65 | 1019.0 |
| 20260902154856 | 88 | 255 | 2.6 | 6.1 | 0.00 | 0.00 | 0.00 | 64 | 1019.0 |
| 20260902154357 | 87 | 237 | 0.0 | 1.7 | 0.00 | 0.00 | 0.00 | 68 | 1019.0 |
| 20260902154056 | 87 | 303 | 0.9 | 3.5 | 0.00 | 0.00 | 0.00 | 67 | 1019.0 |
| 20260902153857 | 87 | 300 | 1.7 | 4.3 | 0.00 | 0.00 | 0.00 | 68 | 1019.0 |
| 20260902153657 | 87 | 164 | 0.0 | 0.9 | 0.00 | 0.00 | 0.00 | 69 | 1019.0 |
| 20260902153357 | 87 | 241 | 0.9 | 2.6 | 0.00 | 0.00 | 0.00 | 67 | 1019.0 |
| 20260902153157 | 87 | 285 | 1.7 | 2.6 | 0.00 | 0.00 | 0.00 | 67 | 1019.0 |
| 20260902152857 | 86 | 264 | 1.7 | 3.5 | 0.00 | 0.00 | 0.00 | 67 | 1019.0 |
| 20260902152357 | 86 | 262 | 0.9 | 3.5 | 0.00 | 0.00 | 0.00 | 70 | 1019.0 |
| 20260902151900 | 86 | 289 | 0.9 | 3.5 | 0.00 | 0.00 | 0.00 | 69 | 1019.0 |
| 20260902151757 | 86 | 266 | 0.9 | 1.7 | 0.00 | 0.00 | 0.00 | 71 | 1019.0 |
| 20260902151556 | 85 | 280 | 0.9 | 2.6 | 0.00 | 0.00 | 0.00 | 72 | 1019.0 |
| 20260902151357 | 85 | 276 | 1.7 | 3.5 | 0.00 | 0.00 | 0.00 | 73 | 1019.0 |
| 20260902151257 | 85 | 256 | 1.7 | 1.7 | 0.00 | 0.00 | 0.00 | 72 | 1019.0 |
| 20260902151157 | 85 | 279 | 1.7 | 2.6 | 0.00 | 0.00 | 0.00 | 72 | 1019.0 |
| 20260902150757 | 85 | 190 | 0.9 | 2.6 | 0.00 | 0.00 | 0.00 | 71 | 1019.0 |
| 20260902150257 | 85 | 252 | 0.0 | 0.9 | 0.00 | 0.00 | 0.00 | 72 | 1019.0 |
| 20260902145756 | 85 | 262 | 1.7 | 3.5 | 0.00 | 0.00 | 0.00 | 75 | 1019.0 |
| 20260902145256 | 84 | 230 | 0.0 | 0.9 | 0.00 | 0.00 | 0.00 | 76 | 1019.0 |
| 20260902145156 | 84 | 267 | 0.9 | 2.6 | 0.00 | 0.00 | 0.00 | 76 | 1019.0 |
| 20260902145056 | 84 | 166 | 0.0 | 0.9 | 0.00 | 0.00 | 0.00 | 75 | 1019.0 |
| 20260902144658 | 84 | 129 | 1.7 | 1.7 | 0.00 | 0.00 | 0.00 | 76 | 1019.0 |
| 20260902144357 | 84 | 120 | 1.7 | 1.7 | 0.00 | 0.00 | 0.00 | 76 | 1019.0 |
| 20260902144156 | 83 | 124 | 0.9 | 1.7 | 0.00 | 0.00 | 0.00 | 75 | 1019.0 |
| 20260902143956 | 83 | 129 | 0.9 | 0.9 | 0.00 | 0.00 | 0.00 | 77 | 1019.0 |
| 20260902143657 | 83 | 126 | 0.9 | 1.7 | 0.00 | 0.00 | 0.00 | 78 | 1019.0 |
| 20260902143458 | 83 | 133 | 0.9 | 1.7 | 0.00 | 0.00 | 0.00 | 78 | 1019.0 |
| 20260902142957 | 83 | 311 | 1.7 | 1.7 | 0.00 | 0.00 | 0.00 | 79 | 1019.0 |
| 20260902142856 | 83 | 318 | 1.7 | 1.7 | 0.00 | 0.00 | 0.00 | 78 | 1019.0 |
| 20260902142456 | 82 | 320 | 1.7 | 1.7 | 0.00 | 0.00 | 0.00 | 79 | 1019.0 |
| 20260902141943 | 81 | 248 | 1.7 | 1.7 | 0.00 | 0.00 | 0.00 | 80 | 1019.0 |
| 20260902141356 | 81 | 192 | 1.7 | 3.5 | 0.00 | 0.00 | 0.00 | 82 | 1019.0 |
| 20260902141057 | 80 | 192 | 1.7 | 3.5 | 0.00 | 0.00 | 0.00 | 84 | 1019.0 |
| 20260902140857 | 80 | 187 | 2.6 | 3.5 | 0.00 | 0.00 | 0.00 | 84 | 1019.0 |
| 20260902140556 | 80 | 196 | 2.6 | 3.5 | 0.00 | 0.00 | 0.00 | 84 | 1019.0 |
| 20260902140357 | 80 | 185 | 1.7 | 3.5 | 0.00 | 0.00 | 0.00 | 84 | 1019.0 |
| 20260902140156 | 80 | 193 | 1.7 | 3.5 | 0.00 | 0.00 | 0.00 | 84 | 1019.0 |
| 20260902135859 | 79 | 225 | 2.6 | 3.5 | 0.00 | 0.00 | 0.00 | 85 | 1019.0 |
| 20260902135756 | 79 | 224 | 2.6 | 2.6 | 0.00 | 0.00 | 0.00 | 85 | 1019.0 |
| 20260902135656 | 79 | 231 | 2.6 | 3.5 | 0.00 | 0.00 | 0.00 | 85 | 1019.0 |
| 20260902135356 | 79 | 231 | 2.6 | 3.5 | 0.00 | 0.00 | 0.00 | 85 | 1019.0 |
| 20260902134857 | 79 | 229 | 1.7 | 2.6 | 0.00 | 0.00 | 0.00 | 85 | 1019.0 |
| 20260902134756 | 78 | 224 | 1.7 | 3.5 | 0.00 | 0.00 | 0.00 | 85 | 1019.0 |
| 20260902134356 | 78 | 224 | 2.6 | 3.5 | 0.00 | 0.00 | 0.00 | 86 | 1019.0 |
| 20260902134256 | 78 | 228 | 2.6 | 3.5 | 0.00 | 0.00 | 0.00 | 86 | 1019.0 |
| 20260902134058 | 78 | 217 | 2.6 | 3.5 | 0.00 | 0.00 | 0.00 | 86 | 1019.0 |
| 20260902133856 | 78 | 222 | 1.7 | 3.5 | 0.00 | 0.00 | 0.00 | 86 | 1019.0 |
| 20260902133657 | 78 | 225 | 1.7 | 2.6 | 0.00 | 0.00 | 0.00 | 87 | 1019.0 |
| 20260902133157 | 77 | 241 | 1.7 | 1.7 | 0.00 | 0.00 | 0.00 | 86 | 1019.0 |
| 20260902132659 | 77 | 227 | 1.7 | 3.5 | 0.00 | 0.00 | 0.00 | 87 | 1019.0 |
| 20260902132200 | 77 | 214 | 1.7 | 2.6 | 0.00 | 0.00 | 0.00 | 88 | 1019.0 |
| 20260902132056 | 77 | 196 | 1.7 | 3.5 | 0.00 | 0.00 | 0.00 | 87 | 1019.0 |
| 20260902131857 | 76 | 195 | 0.9 | 1.7 | 0.00 | 0.00 | 0.00 | 88 | 1019.0 |
| 20260902131656 | 76 | 208 | 0.9 | 2.6 | 0.00 | 0.00 | 0.00 | 88 | 1019.0 |
| 20260902131357 | 76 | 222 | 0.9 | 1.7 | 0.00 | 0.00 | 0.00 | 89 | 1019.0 |
| 20260902130856 | 76 | 207 | 0.9 | 1.7 | 0.00 | 0.00 | 0.00 | 89 | 1019.0 |
| 20260902130759 | 76 | 203 | 0.9 | 3.5 | 0.00 | 0.00 | 0.00 | 89 | 1019.0 |
| 20260902130301 | 76 | 219 | 0.9 | 1.7 | 0.00 | 0.00 | 0.00 | 88 | 1019.0 |
| 20260902130159 | 76 | 217 | 0.9 | 2.6 | 0.00 | 0.00 | 0.00 | 88 | 1019.0 |
| 20260902125956 | 76 | 184 | 3.5 | 4.3 | 0.00 | 0.00 | 0.00 | 88 | 1019.0 |
| 20260902125756 | 76 | 187 | 2.6 | 4.3 | 0.00 | 0.00 | 0.00 | 88 | 1019.0 |
| 20260902125657 | 76 | 183 | 3.5 | 4.3 | 0.00 | 0.00 | 0.00 | 88 | 1019.0 |
| 20260902125257 | 76 | 181 | 2.6 | 4.3 | 0.00 | 0.00 | 0.00 | 88 | 1019.0 |
| 20260902125158 | 76 | 182 | 3.5 | 4.3 | 0.00 | 0.00 | 0.00 | 88 | 1019.0 |
| 20260902124957 | 76 | 182 | 2.6 | 3.5 | 0.00 | 0.00 | 0.00 | 87 | 1019.0 |
| 20260902124756 | 76 | 187 | 3.5 | 4.3 | 0.00 | 0.00 | 0.00 | 88 | 1019.0 |
| 20260902124656 | 76 | 182 | 3.5 | 4.3 | 0.00 | 0.00 | 0.00 | 88 | 1019.0 |
| 20260902124256 | 75 | 181 | 2.6 | 3.5 | 0.00 | 0.00 | 0.00 | 88 | 1019.0 |
| 20260902124157 | 75 | 183 | 2.6 | 4.3 | 0.00 | 0.00 | 0.00 | 88 | 1019.0 |
| 20260902124056 | 75 | 181 | 3.5 | 3.5 | 0.00 | 0.00 | 0.00 | 89 | 1019.0 |
| 20260902123856 | 75 | 177 | 1.7 | 3.5 | 0.00 | 0.00 | 0.00 | 89 | 1019.0 |
| 20260902123557 | 74 | 217 | 1.7 | 3.5 | 0.00 | 0.00 | 0.00 | 89 | 1019.0 |
| 20260902123257 | 74 | 218 | 1.7 | 2.6 | 0.00 | 0.00 | 0.00 | 90 | 1019.0 |
| 20260902123157 | 74 | 214 | 1.7 | 1.7 | 0.00 | 0.00 | 0.00 | 91 | 1019.0 |
| 20260902123057 | 74 | 224 | 1.7 | 1.7 | 0.00 | 0.00 | 0.00 | 91 | 1019.0 |
| 20260902122756 | 74 | 227 | 1.7 | 2.6 | 0.00 | 0.00 | 0.00 | 92 | 1019.0 |
| 20260902122557 | 73 | 218 | 1.7 | 2.6 | 0.00 | 0.00 | 0.00 | 92 | 1019.0 |
| 20260902122057 | 73 | 208 | 1.7 | 2.6 | 0.00 | 0.00 | 0.00 | 93 | 1019.0 |
| 20260902121856 | 73 | 191 | 0.9 | 2.6 | 0.00 | 0.00 | 0.00 | 93 | 1019.0 |
| 20260902121557 | 72 | 214 | 0.0 | 1.7 | 0.00 | 0.00 | 0.00 | 94 | 1019.0 |
| 20260902121457 | 72 | 231 | 0.9 | 2.6 | 0.00 | 0.00 | 0.00 | 94 | 1019.0 |
| 20260902121056 | 72 | 200 | 0.0 | 1.7 | 0.00 | 0.00 | 0.00 | 95 | 1019.0 |
| 20260902120856 | 72 | 205 | 0.9 | 1.7 | 0.00 | 0.00 | 0.00 | 95 | 1019.0 |
| 20260902120556 | 72 | 184 | 0.9 | 1.7 | 0.00 | 0.00 | 0.00 | 95 | 1019.0 |
| 20260902120157 | 72 | 231 | 0.9 | 1.7 | 0.00 | 0.00 | 0.00 | 95 | 1019.0 |
| 20260902120057 | 72 | 231 | 0.9 | 1.7 | 0.00 | 0.00 | 0.00 | 95 | 1019.0 |
| 20260902115656 | 71 | 214 | 0.9 | 1.7 | 0.00 | 0.00 | 0.00 | 96 | 1019.0 |
| 20260902115556 | 71 | 199 | 0.0 | 0.9 | 0.00 | 0.00 | 0.00 | 96 | 1019.0 |
| 20260902115457 | 71 | 187 | 0.0 | 1.7 | 0.00 | 0.00 | 0.00 | 96 | 1019.0 |
| 20260902114956 | 71 | 234 | 0.0 | 0.9 | 0.00 | 0.00 | 0.00 | 96 | 1019.0 |
| 20260902114457 | 71 | 208 | 0.0 | 0.9 | 0.00 | 0.00 | 0.00 | 97 | 1019.0 |
| 20260902114356 | 71 | 171 | 0.0 | 1.7 | 0.00 | 0.00 | 0.00 | 97 | 1019.0 |
| 20260902113956 | 71 | 329 | 0.0 | 0.0 | 0.00 | 0.00 | 0.00 | 97 | 1019.0 |
| 20260902113856 | 71 | 360 | 0.0 | 0.0 | 0.00 | 0.00 | 0.00 | 97 | 1019.0 |
| 20260902113457 | 71 | 206 | 0.0 | 1.7 | 0.00 | 0.00 | 0.00 | 97 | 1018.0 |
| 20260902113356 | 71 | 299 | 0.0 | 0.0 | 0.00 | 0.00 | 0.00 | 97 | 1018.0 |
| 20260902113156 | 71 | 293 | 0.0 | 0.9 | 0.00 | 0.00 | 0.00 | 97 | 1018.0 |
| 20260902112856 | 71 | 80 | 0.0 | 0.0 | 0.00 | 0.00 | 0.00 | 97 | 1018.0 |
| 20260902112600 | 71 | 212 | 0.0 | 1.7 | 0.00 | 0.00 | 0.00 | 97 | 1018.0 |
| 20260902112356 | 71 | 225 | 0.0 | 0.9 | 0.00 | 0.00 | 0.00 | 97 | 1018.0 |
| 20260902112256 | 71 | 233 | 0.0 | 1.7 | 0.00 | 0.00 | 0.00 | 96 | 1018.0 |
| 20260902111756 | 71 | 360 | 0.0 | 0.0 | 0.00 | 0.00 | 0.00 | 97 | 1018.0 |
| 20260902111256 | 71 | 248 | 0.0 | 0.9 | 0.00 | 0.00 | 0.00 | 97 | 1018.0 |
| 20260902111056 | 71 | 241 | 0.0 | 1.7 | 0.00 | 0.00 | 0.00 | 97 | 1018.0 |
| 20260902110957 | 71 | 224 | 0.0 | 0.9 | 0.00 | 0.00 | 0.00 | 97 | 1018.0 |
| 20260902110656 | 71 | 260 | 0.0 | 1.7 | 0.00 | 0.00 | 0.00 | 97 | 1018.0 |
| 20260902110158 | 71 | 210 | 0.0 | 0.9 | 0.00 | 0.00 | 0.00 | 96 | 1018.0 |
| 20260902105656 | 71 | 221 | 0.0 | 0.9 | 0.00 | 0.00 | 0.00 | 97 | 1018.0 |
| 20260902105556 | 71 | 215 | 0.9 | 1.7 | 0.00 | 0.00 | 0.00 | 97 | 1018.0 |
| 20260902105156 | 71 | 246 | 0.0 | 1.7 | 0.00 | 0.00 | 0.00 | 97 | 1018.0 |
| 20260902104957 | 71 | 200 | 0.0 | 1.7 | 0.00 | 0.00 | 0.00 | 97 | 1018.0 |
| 20260902104656 | 71 | 130 | 0.0 | 0.9 | 0.00 | 0.00 | 0.00 | 97 | 1018.0 |
| 20260902104256 | 71 | 205 | 0.0 | 1.7 | 0.00 | 0.00 | 0.00 | 97 | 1018.0 |
| 20260902104156 | 71 | 187 | 0.0 | 0.9 | 0.00 | 0.00 | 0.00 | 97 | 1018.0 |
| 20260902103656 | 71 | 143 | 0.0 | 0.9 | 0.00 | 0.00 | 0.00 | 97 | 1018.0 |
| 20260902103156 | 71 | 360 | 0.0 | 0.0 | 0.00 | 0.00 | 0.00 | 97 | 1018.0 |
| 20260902102757 | 71 | 360 | 0.0 | 0.0 | 0.00 | 0.00 | 0.00 | 97 | 1018.0 |
| 20260902102656 | 71 | 360 | 0.0 | 0.0 | 0.00 | 0.00 | 0.00 | 97 | 1018.0 |
| 20260902102456 | 71 | 360 | 0.0 | 0.0 | 0.00 | 0.00 | 0.00 | 96 | 1018.0 |
| 20260902102157 | 71 | 149 | 0.0 | 0.9 | 0.00 | 0.00 | 0.00 | 96 | 1018.0 |
| 20260902101856 | 71 | 139 | 0.0 | 0.9 | 0.00 | 0.00 | 0.00 | 96 | 1018.0 |
| 20260902101756 | 71 | 155 | 0.0 | 1.7 | 0.00 | 0.00 | 0.00 | 96 | 1018.0 |
| 20260902101657 | 71 | 360 | 0.0 | 0.0 | 0.00 | 0.00 | 0.00 | 96 | 1018.0 |
| 20260902101456 | 71 | 360 | 0.0 | 0.0 | 0.00 | 0.00 | 0.00 | 96 | 1018.0 |
| 20260902101256 | 71 | 143 | 0.0 | 0.9 | 0.00 | 0.00 | 0.00 | 96 | 1018.0 |
| 20260902100956 | 71 | 360 | 0.0 | 0.0 | 0.00 | 0.00 | 0.00 | 96 | 1018.0 |
| 20260902100757 | 71 | 360 | 0.0 | 0.0 | 0.00 | 0.00 | 0.00 | 96 | 1018.0 |
| 20260902100457 | 71 | 344 | 0.0 | 1.7 | 0.00 | 0.00 | 0.00 | 96 | 1018.0 |
| 20260902100258 | 71 | 360 | 0.0 | 0.0 | 0.00 | 0.00 | 0.00 | 96 | 1018.0 |
| 20260902095956 | 71 | 121 | 0.0 | 0.0 | 0.00 | 0.00 | 0.00 | 96 | 1018.0 |
| 20260902095557 | 71 | 66 | 0.0 | 1.7 | 0.00 | 0.00 | 0.00 | 96 | 1018.0 |
| 20260902095456 | 71 | 360 | 0.0 | 0.0 | 0.00 | 0.00 | 0.00 | 96 | 1018.0 |
| 20260902095057 | 71 | 271 | 0.0 | 0.9 | 0.00 | 0.00 | 0.00 | 96 | 1018.0 |
| 20260902094956 | 71 | 360 | 0.0 | 0.0 | 0.00 | 0.00 | 0.00 | 96 | 1018.0 |
| 20260902094505 | 71 | 360 | 0.0 | 0.0 | 0.00 | 0.00 | 0.00 | 96 | 1018.0 |
| 20260902094256 | 71 | 200 | 0.0 | 0.9 | 0.00 | 0.00 | 0.00 | 96 | 1018.0 |
| 20260902093756 | 71 | 360 | 0.0 | 0.0 | 0.00 | 0.00 | 0.00 | 96 | 1018.0 |
| 20260902093258 | 71 | 360 | 0.0 | 0.0 | 0.00 | 0.00 | 0.00 | 96 | 1018.0 |
| 20260902092756 | 71 | 360 | 0.0 | 0.0 | 0.00 | 0.00 | 0.00 | 96 | 1018.0 |
| 20260902092556 | 71 | 272 | 0.0 | 0.9 | 0.00 | 0.00 | 0.00 | 96 | 1018.0 |
| 20260902092257 | 72 | 360 | 0.0 | 0.0 | 0.00 | 0.00 | 0.00 | 95 | 1018.0 |
| 20260902092058 | 72 | 360 | 0.0 | 0.0 | 0.00 | 0.00 | 0.00 | 95 | 1018.0 |
| 20260902091756 | 72 | 360 | 0.0 | 0.0 | 0.00 | 0.00 | 0.00 | 96 | 1018.0 |
| 20260902091657 | 72 | 210 | 0.9 | 1.7 | 0.00 | 0.00 | 0.00 | 96 | 1018.0 |
| 20260902091556 | 72 | 181 | 0.0 | 1.7 | 0.00 | 0.00 | 0.00 | 96 | 1018.0 |
| 20260902091256 | 72 | 171 | 0.0 | 0.9 | 0.00 | 0.00 | 0.00 | 95 | 1018.0 |
| 20260902090757 | 72 | 167 | 0.0 | 0.9 | 0.00 | 0.00 | 0.00 | 96 | 1018.0 |
| 20260902090657 | 72 | 168 | 0.0 | 0.9 | 0.00 | 0.00 | 0.00 | 96 | 1018.0 |
| 20260902090257 | 72 | 232 | 0.0 | 0.9 | 0.00 | 0.00 | 0.00 | 96 | 1018.0 |
| 20260902090057 | 72 | 167 | 0.0 | 0.9 | 0.00 | 0.00 | 0.00 | 96 | 1018.0 |
| 20260902085757 | 72 | 139 | 0.0 | 0.9 | 0.00 | 0.00 | 0.00 | 96 | 1018.0 |
| 20260902085556 | 72 | 360 | 0.0 | 0.0 | 0.00 | 0.00 | 0.00 | 96 | 1018.0 |
| 20260902085156 | 72 | 360 | 0.0 | 0.0 | 0.00 | 0.00 | 0.00 | 96 | 1018.0 |
| 20260902085057 | 72 | 175 | 0.0 | 0.9 | 0.00 | 0.00 | 0.00 | 95 | 1018.0 |
| 20260902084756 | 72 | 335 | 0.0 | 0.0 | 0.00 | 0.00 | 0.00 | 95 | 1018.0 |
| 20260902084558 | 72 | 230 | 0.0 | 0.9 | 0.00 | 0.00 | 0.00 | 95 | 1018.0 |
| 20260902084156 | 72 | 327 | 0.0 | 0.0 | 0.00 | 0.00 | 0.00 | 96 | 1018.0 |
| 20260902084056 | 72 | 305 | 0.0 | 0.9 | 0.00 | 0.00 | 0.00 | 96 | 1018.0 |
| 20260902083557 | 72 | 187 | 0.0 | 0.9 | 0.00 | 0.00 | 0.00 | 95 | 1018.0 |
| 20260902083256 | 72 | 177 | 0.0 | 0.9 | 0.00 | 0.00 | 0.00 | 95 | 1018.0 |
| 20260902083057 | 72 | 168 | 0.0 | 0.9 | 0.00 | 0.00 | 0.00 | 95 | 1018.0 |
| 20260902082957 | 72 | 360 | 0.0 | 0.0 | 0.00 | 0.00 | 0.00 | 95 | 1018.0 |
| 20260902082556 | 72 | 125 | 0.0 | 0.9 | 0.00 | 0.00 | 0.00 | 95 | 1018.0 |
| 20260902082456 | 72 | 360 | 0.0 | 0.0 | 0.00 | 0.00 | 0.00 | 95 | 1018.0 |
| 20260902082057 | 72 | 129 | 0.9 | 0.9 | 0.00 | 0.00 | 0.00 | 95 | 1018.0 |
| 20260902081857 | 72 | 132 | 0.9 | 1.7 | 0.00 | 0.00 | 0.00 | 95 | 1018.0 |
| 20260902081556 | 72 | 137 | 0.9 | 1.7 | 0.00 | 0.00 | 0.00 | 95 | 1018.0 |
| 20260902081256 | 72 | 143 | 0.0 | 0.9 | 0.00 | 0.00 | 0.00 | 95 | 1018.0 |
| 20260902081157 | 72 | 156 | 0.0 | 0.9 | 0.00 | 0.00 | 0.00 | 95 | 1018.0 |
| 20260902080856 | 72 | 185 | 0.0 | 0.9 | 0.00 | 0.00 | 0.00 | 95 | 1018.0 |
| 20260902080356 | 72 | 171 | 0.0 | 0.9 | 0.00 | 0.00 | 0.00 | 95 | 1018.0 |
| 20260902075856 | 72 | 101 | 0.0 | 0.9 | 0.00 | 0.00 | 0.00 | 95 | 1017.0 |
| 20260902075756 | 72 | 178 | 0.0 | 0.9 | 0.00 | 0.00 | 0.00 | 95 | 1018.0 |
| 20260902075256 | 72 | 200 | 0.0 | 0.0 | 0.00 | 0.00 | 0.00 | 95 | 1018.0 |
| 20260902075159 | 72 | 306 | 0.0 | 0.0 | 0.00 | 0.00 | 0.00 | 95 | 1018.0 |
| 20260902074857 | 72 | 207 | 0.0 | 0.9 | 0.00 | 0.00 | 0.00 | 95 | 1018.0 |
| 20260902074756 | 72 | 360 | 0.0 | 0.0 | 0.00 | 0.00 | 0.00 | 95 | 1018.0 |
| 20260902074656 | 72 | 157 | 0.0 | 0.9 | 0.00 | 0.00 | 0.00 | 95 | 1018.0 |
| 20260902074257 | 72 | 360 | 0.0 | 0.0 | 0.00 | 0.00 | 0.00 | 95 | 1018.0 |
| 20260902073757 | 72 | 182 | 0.0 | 0.9 | 0.00 | 0.00 | 0.00 | 95 | 1017.0 |
| 20260902073656 | 72 | 360 | 0.0 | 0.0 | 0.00 | 0.00 | 0.00 | 95 | 1017.0 |
| 20260902073157 | 72 | 360 | 0.0 | 0.0 | 0.00 | 0.00 | 0.00 | 95 | 1017.0 |
| 20260902072857 | 72 | 147 | 0.0 | 1.7 | 0.00 | 0.00 | 0.00 | 95 | 1017.0 |
| 20260902072657 | 72 | 167 | 0.0 | 0.9 | 0.00 | 0.00 | 0.00 | 95 | 1018.0 |
| 20260902072156 | 73 | 136 | 0.0 | 0.0 | 0.00 | 0.00 | 0.00 | 95 | 1018.0 |
| 20260902072057 | 73 | 150 | 0.0 | 0.9 | 0.00 | 0.00 | 0.00 | 95 | 1018.0 |
| 20260902071556 | 73 | 352 | 0.0 | 0.9 | 0.00 | 0.00 | 0.00 | 95 | 1018.0 |
| 20260902071456 | 73 | 360 | 0.0 | 0.0 | 0.00 | 0.00 | 0.00 | 95 | 1018.0 |
| 20260902070956 | 73 | 149 | 0.0 | 0.9 | 0.00 | 0.00 | 0.00 | 95 | 1018.0 |
| 20260902070857 | 73 | 335 | 0.0 | 0.0 | 0.00 | 0.00 | 0.00 | 95 | 1018.0 |
| 20260902070356 | 73 | 360 | 0.0 | 0.0 | 0.00 | 0.00 | 0.00 | 95 | 1018.0 |
| 20260902070257 | 73 | 360 | 0.0 | 0.0 | 0.00 | 0.00 | 0.00 | 95 | 1018.0 |
| 20260902065757 | 73 | 144 | 0.0 | 0.9 | 0.00 | 0.00 | 0.00 | 95 | 1018.0 |
| 20260902065556 | 73 | 110 | 0.0 | 0.0 | 0.00 | 0.00 | 0.00 | 95 | 1018.0 |
| 20260902065256 | 73 | 360 | 0.0 | 0.0 | 0.00 | 0.00 | 0.00 | 95 | 1018.0 |
| 20260902064757 | 73 | 360 | 0.0 | 0.0 | 0.00 | 0.00 | 0.00 | 95 | 1018.0 |
| 20260902064258 | 73 | 190 | 0.0 | 0.0 | 0.00 | 0.00 | 0.00 | 95 | 1018.0 |
| 20260902064156 | 73 | 155 | 0.0 | 1.7 | 0.00 | 0.00 | 0.00 | 95 | 1018.0 |
| 20260902063656 | 73 | 360 | 0.0 | 0.0 | 0.00 | 0.00 | 0.00 | 95 | 1018.0 |
| 20260902063157 | 73 | 360 | 0.0 | 0.0 | 0.00 | 0.00 | 0.00 | 94 | 1018.0 |
| 20260902062655 | 73 | 77 | 0.0 | 0.0 | 0.00 | 0.00 | 0.00 | 94 | 1018.0 |
| 20260902062156 | 73 | 287 | 0.0 | 0.9 | 0.00 | 0.00 | 0.00 | 94 | 1018.0 |
| 20260902061656 | 73 | 360 | 0.0 | 0.0 | 0.00 | 0.00 | 0.00 | 94 | 1018.0 |
| 20260902061157 | 73 | 315 | 0.0 | 1.7 | 0.00 | 0.00 | 0.00 | 94 | 1018.0 |
| 20260902061056 | 73 | 329 | 0.0 | 0.0 | 0.00 | 0.00 | 0.00 | 94 | 1018.0 |
| 20260902060556 | 73 | 360 | 0.0 | 0.0 | 0.00 | 0.00 | 0.00 | 94 | 1018.0 |
| 20260902060056 | 73 | 101 | 0.0 | 0.0 | 0.00 | 0.00 | 0.00 | 94 | 1018.0 |
| 20260902055958 | 74 | 360 | 0.0 | 0.0 | 0.00 | 0.00 | 0.00 | 94 | 1018.0 |
| 20260902055757 | 74 | 360 | 0.0 | 0.0 | 0.00 | 0.00 | 0.00 | 94 | 1018.0 |
| 20260902055557 | 74 | 13 | 0.0 | 0.9 | 0.00 | 0.00 | 0.00 | 94 | 1018.0 |
| 20260902055056 | 74 | 314 | 0.0 | 0.0 | 0.00 | 0.00 | 0.00 | 94 | 1018.0 |
| 20260902054857 | 74 | 27 | 0.0 | 0.9 | 0.00 | 0.00 | 0.00 | 94 | 1018.0 |
| 20260902054557 | 74 | 116 | 0.0 | 1.7 | 0.00 | 0.00 | 0.00 | 94 | 1018.0 |
| 20260902054057 | 74 | 129 | 0.0 | 0.9 | 0.00 | 0.00 | 0.00 | 93 | 1018.0 |
| 20260902053556 | 74 | 134 | 0.0 | 0.9 | 0.00 | 0.00 | 0.00 | 93 | 1018.0 |
| 20260902053257 | 74 | 121 | 0.0 | 0.9 | 0.00 | 0.00 | 0.00 | 93 | 1018.0 |
| 20260902053156 | 74 | 111 | 0.0 | 0.9 | 0.00 | 0.00 | 0.00 | 93 | 1018.0 |
| 20260902053055 | 74 | 360 | 0.0 | 0.0 | 0.00 | 0.00 | 0.00 | 93 | 1018.0 |
| 20260902052957 | 74 | 347 | 0.0 | 1.7 | 0.00 | 0.00 | 0.00 | 93 | 1018.0 |
| 20260902052556 | 74 | 360 | 0.0 | 0.0 | 0.00 | 0.00 | 0.00 | 93 | 1018.0 |
| 20260902052459 | 74 | 293 | 0.0 | 0.9 | 0.00 | 0.00 | 0.00 | 93 | 1018.0 |
| 20260902052056 | 74 | 360 | 0.0 | 0.0 | 0.00 | 0.00 | 0.00 | 93 | 1018.0 |
| 20260902051956 | 74 | 360 | 0.0 | 0.0 | 0.00 | 0.00 | 0.00 | 93 | 1018.0 |
| 20260902051856 | 74 | 323 | 0.0 | 0.0 | 0.00 | 0.00 | 0.00 | 93 | 1018.0 |
| 20260902051556 | 74 | 218 | 0.0 | 0.0 | 0.00 | 0.00 | 0.00 | 93 | 1018.0 |
| 20260902051258 | 74 | 154 | 0.0 | 0.9 | 0.00 | 0.00 | 0.00 | 93 | 1018.0 |
| 20260902051057 | 74 | 360 | 0.0 | 0.0 | 0.00 | 0.00 | 0.00 | 93 | 1018.0 |
| 20260902050957 | 74 | 360 | 0.0 | 0.0 | 0.00 | 0.00 | 0.00 | 93 | 1018.0 |
| 20260902050657 | 74 | 360 | 0.0 | 0.0 | 0.00 | 0.00 | 0.00 | 93 | 1018.0 |
| 20260902050556 | 74 | 360 | 0.0 | 0.0 | 0.00 | 0.00 | 0.00 | 93 | 1018.0 |
| 20260902050457 | 74 | 360 | 0.0 | 0.0 | 0.00 | 0.00 | 0.00 | 93 | 1018.0 |
| 20260902045957 | 74 | 311 | 0.0 | 0.9 | 0.00 | 0.00 | 0.00 | 93 | 1018.0 |
| 20260902045856 | 74 | 76 | 0.0 | 0.0 | 0.00 | 0.00 | 0.00 | 93 | 1018.0 |
| 20260902045456 | 75 | 282 | 0.0 | 0.9 | 0.00 | 0.00 | 0.00 | 93 | 1018.0 |
| 20260902045357 | 75 | 241 | 0.0 | 0.9 | 0.00 | 0.00 | 0.00 | 93 | 1018.0 |
| 20260902044956 | 75 | 319 | 0.0 | 0.9 | 0.00 | 0.00 | 0.00 | 93 | 1018.0 |
| 20260902044657 | 75 | 360 | 0.0 | 0.0 | 0.00 | 0.00 | 0.00 | 93 | 1018.0 |
| 20260902044357 | 75 | 100 | 0.0 | 1.7 | 0.00 | 0.00 | 0.00 | 93 | 1018.0 |
| 20260902044056 | 75 | 165 | 0.0 | 0.0 | 0.00 | 0.00 | 0.00 | 93 | 1018.0 |
| 20260902043858 | 75 | 226 | 0.9 | 1.7 | 0.00 | 0.00 | 0.00 | 93 | 1018.0 |
| 20260902043356 | 75 | 194 | 0.0 | 0.9 | 0.00 | 0.00 | 0.00 | 92 | 1018.0 |
| 20260902043257 | 75 | 285 | 0.0 | 2.6 | 0.00 | 0.00 | 0.00 | 92 | 1018.0 |
| 20260902042856 | 75 | 360 | 0.0 | 0.0 | 0.00 | 0.00 | 0.00 | 92 | 1018.0 |
| 20260902042456 | 75 | 360 | 0.0 | 0.0 | 0.00 | 0.00 | 0.00 | 92 | 1018.0 |
| 20260902042357 | 75 | 285 | 0.0 | 0.9 | 0.00 | 0.00 | 0.00 | 92 | 1018.0 |
| 20260902042257 | 75 | 280 | 0.0 | 0.9 | 0.00 | 0.00 | 0.00 | 92 | 1018.0 |
| 20260902041858 | 75 | 182 | 0.0 | 0.0 | 0.00 | 0.00 | 0.00 | 92 | 1018.0 |
| 20260902041357 | 75 | 129 | 0.0 | 0.9 | 0.00 | 0.00 | 0.00 | 92 | 1018.0 |
| 20260902041257 | 75 | 164 | 0.0 | 0.9 | 0.00 | 0.00 | 0.00 | 92 | 1018.0 |
| 20260902041157 | 75 | 169 | 0.0 | 1.7 | 0.00 | 0.00 | 0.00 | 92 | 1018.0 |
| 20260902040757 | 75 | 161 | 0.0 | 0.9 | 0.00 | 0.00 | 0.00 | 92 | 1018.0 |
| 20260902040457 | 75 | 160 | 0.0 | 0.0 | 0.00 | 0.00 | 0.00 | 92 | 1018.0 |
| 20260902040257 | 75 | 126 | 0.0 | 0.9 | 0.00 | 0.00 | 0.00 | 92 | 1018.0 |
| 20260902035756 | 75 | 147 | 0.0 | 1.7 | 0.00 | 0.00 | 0.00 | 92 | 1018.0 |
| 20260902035256 | 75 | 137 | 0.0 | 0.9 | 0.00 | 0.00 | 0.00 | 92 | 1018.0 |
| 20260902034758 | 76 | 170 | 0.0 | 0.0 | 0.00 | 0.00 | 0.00 | 91 | 1018.0 |
| 20260902034257 | 76 | 167 | 0.0 | 3.5 | 0.00 | 0.00 | 0.00 | 91 | 1018.0 |
| 20260902034057 | 76 | 360 | 0.0 | 0.0 | 0.00 | 0.00 | 0.00 | 91 | 1018.0 |
| 20260902033756 | 76 | 135 | 0.9 | 1.7 | 0.00 | 0.00 | 0.00 | 91 | 1018.0 |
| 20260902033356 | 76 | 360 | 0.0 | 0.0 | 0.00 | 0.00 | 0.00 | 91 | 1018.0 |
| 20260902033256 | 76 | 135 | 0.0 | 1.7 | 0.00 | 0.00 | 0.00 | 91 | 1018.0 |
| 20260902033157 | 76 | 147 | 0.0 | 1.7 | 0.00 | 0.00 | 0.00 | 91 | 1018.0 |
| 20260902032756 | 76 | 360 | 0.0 | 0.0 | 0.00 | 0.00 | 0.00 | 91 | 1018.0 |
| 20260902032256 | 76 | 151 | 0.0 | 1.7 | 0.00 | 0.00 | 0.00 | 91 | 1018.0 |
| 20260902031956 | 76 | 155 | 0.9 | 1.7 | 0.00 | 0.00 | 0.00 | 90 | 1018.0 |
| 20260902031757 | 76 | 162 | 0.9 | 1.7 | 0.00 | 0.00 | 0.00 | 90 | 1018.0 |
| 20260902031256 | 76 | 157 | 0.9 | 1.7 | 0.00 | 0.00 | 0.00 | 90 | 1018.0 |
| 20260902031056 | 76 | 155 | 0.9 | 1.7 | 0.00 | 0.00 | 0.00 | 90 | 1018.0 |
| 20260902030656 | 76 | 156 | 0.9 | 1.7 | 0.00 | 0.00 | 0.00 | 89 | 1018.0 |
| 20260902030456 | 76 | 159 | 0.9 | 1.7 | 0.00 | 0.00 | 0.00 | 89 | 1018.0 |
| 20260902030157 | 77 | 155 | 0.9 | 1.7 | 0.00 | 0.00 | 0.00 | 89 | 1018.0 |
| 20260902025757 | 77 | 155 | 0.9 | 1.7 | 0.00 | 0.00 | 0.00 | 89 | 1018.0 |
| 20260902025658 | 77 | 154 | 0.9 | 1.7 | 0.00 | 0.00 | 0.00 | 89 | 1018.0 |
| 20260902025556 | 77 | 163 | 0.9 | 1.7 | 0.00 | 0.00 | 0.00 | 89 | 1018.0 |
| 20260902025357 | 77 | 151 | 0.9 | 1.7 | 0.00 | 0.00 | 0.00 | 89 | 1018.0 |
| 20260902025158 | 77 | 158 | 0.9 | 1.7 | 0.00 | 0.00 | 0.00 | 89 | 1018.0 |
| 20260902024759 | 77 | 360 | 0.0 | 0.0 | 0.00 | 0.00 | 0.00 | 88 | 1018.0 |
| 20260902024656 | 77 | 360 | 0.0 | 0.0 | 0.00 | 0.00 | 0.00 | 88 | 1018.0 |
| 20260902024157 | 77 | 141 | 0.9 | 2.6 | 0.00 | 0.00 | 0.00 | 88 | 1018.0 |
| 20260902023956 | 77 | 138 | 1.7 | 3.5 | 0.00 | 0.00 | 0.00 | 88 | 1018.0 |
| 20260902023657 | 77 | 136 | 1.7 | 2.6 | 0.00 | 0.00 | 0.00 | 88 | 1018.0 |
| 20260902023457 | 77 | 146 | 0.9 | 3.5 | 0.00 | 0.00 | 0.00 | 88 | 1018.0 |
| 20260902023156 | 78 | 136 | 1.7 | 2.6 | 0.00 | 0.00 | 0.00 | 87 | 1018.0 |
| 20260902022856 | 78 | 282 | 0.0 | 0.0 | 0.00 | 0.00 | 0.00 | 87 | 1018.0 |
| 20260902022657 | 78 | 129 | 0.0 | 1.7 | 0.00 | 0.00 | 0.00 | 86 | 1018.0 |
| 20260902022156 | 78 | 316 | 0.0 | 1.7 | 0.00 | 0.00 | 0.00 | 86 | 1018.0 |
| 20260902022056 | 78 | 332 | 0.9 | 1.7 | 0.00 | 0.00 | 0.00 | 86 | 1018.0 |
| 20260902021556 | 78 | 322 | 0.0 | 0.9 | 0.00 | 0.00 | 0.00 | 86 | 1018.0 |
| 20260902021257 | 78 | 317 | 0.9 | 1.7 | 0.00 | 0.00 | 0.00 | 85 | 1018.0 |
| 20260902021057 | 78 | 144 | 0.0 | 2.6 | 0.00 | 0.00 | 0.00 | 85 | 1018.0 |
| 20260902020557 | 79 | 321 | 0.0 | 0.0 | 0.00 | 0.00 | 0.00 | 85 | 1018.0 |
| 20260902020057 | 79 | 322 | 0.9 | 1.7 | 0.00 | 0.00 | 0.00 | 84 | 1018.0 |
| 20260902015756 | 79 | 360 | 0.0 | 0.0 | 0.00 | 0.00 | 0.00 | 84 | 1018.0 |
| 20260902015556 | 79 | 146 | 0.9 | 3.5 | 0.00 | 0.00 | 0.00 | 84 | 1018.0 |
| 20260902015456 | 79 | 158 | 1.7 | 3.5 | 0.00 | 0.00 | 0.00 | 83 | 1018.0 |
| 20260902015157 | 79 | 339 | 0.0 | 1.7 | 0.00 | 0.00 | 0.00 | 83 | 1018.0 |
| 20260902014956 | 79 | 240 | 0.9 | 1.7 | 0.00 | 0.00 | 0.00 | 83 | 1018.0 |
| 20260902014456 | 80 | 145 | 0.9 | 2.6 | 0.00 | 0.00 | 0.00 | 82 | 1018.0 |
| 20260902014357 | 80 | 143 | 0.9 | 2.6 | 0.00 | 0.00 | 0.00 | 82 | 1018.0 |
| 20260902014005 | 80 | 145 | 0.9 | 2.6 | 0.00 | 0.00 | 0.00 | 82 | 1018.0 |
| 20260902013456 | 80 | 132 | 0.9 | 1.7 | 0.00 | 0.00 | 0.00 | 81 | 1018.0 |
| 20260902013157 | 80 | 255 | 0.9 | 2.6 | 0.00 | 0.00 | 0.00 | 81 | 1018.0 |
| 20260902012958 | 80 | 272 | 0.9 | 2.6 | 0.00 | 0.00 | 0.00 | 81 | 1018.0 |
| 20260902012456 | 80 | 280 | 1.7 | 3.5 | 0.00 | 0.00 | 0.00 | 81 | 1017.0 |
| 20260902012356 | 80 | 165 | 1.7 | 3.5 | 0.00 | 0.00 | 0.00 | 81 | 1017.0 |
| 20260902011958 | 80 | 153 | 0.9 | 1.7 | 0.00 | 0.00 | 0.00 | 80 | 1017.0 |
| 20260902011458 | 80 | 150 | 0.9 | 2.6 | 0.00 | 0.00 | 0.00 | 80 | 1017.0 |
| 20260902010956 | 80 | 137 | 0.0 | 1.7 | 0.00 | 0.00 | 0.00 | 82 | 1017.0 |
| 20260902010457 | 80 | 143 | 0.0 | 1.7 | 0.00 | 0.00 | 0.00 | 81 | 1017.0 |
| 20260902005957 | 80 | 135 | 0.0 | 1.7 | 0.00 | 0.00 | 0.00 | 82 | 1017.0 |
| 20260902005756 | 80 | 147 | 1.7 | 2.6 | 0.00 | 0.00 | 0.00 | 82 | 1017.0 |
| 20260902005356 | 80 | 162 | 0.9 | 1.7 | 0.00 | 0.00 | 0.00 | 82 | 1017.0 |
| 20260902005056 | 80 | 138 | 0.9 | 2.6 | 0.00 | 0.00 | 0.00 | 82 | 1017.0 |
| 20260902004956 | 80 | 170 | 1.7 | 2.6 | 0.00 | 0.00 | 0.00 | 82 | 1017.0 |
| 20260902004856 | 80 | 142 | 0.0 | 1.7 | 0.00 | 0.00 | 0.00 | 82 | 1017.0 |
| 20260902004356 | 81 | 161 | 0.0 | 0.9 | 0.00 | 0.00 | 0.00 | 81 | 1017.0 |
| 20260902004156 | 81 | 182 | 0.0 | 0.9 | 0.00 | 0.00 | 0.00 | 81 | 1017.0 |
| 20260902003858 | 81 | 282 | 0.0 | 0.9 | 0.00 | 0.00 | 0.00 | 80 | 1017.0 |
| 20260902003456 | 81 | 360 | 0.0 | 0.0 | 0.00 | 0.00 | 0.00 | 81 | 1017.0 |
| 20260902003356 | 81 | 153 | 0.0 | 0.9 | 0.00 | 0.00 | 0.00 | 81 | 1017.0 |
| 20260902002856 | 82 | 140 | 0.0 | 1.7 | 0.00 | 0.00 | 0.00 | 79 | 1017.0 |
| 20260902002356 | 82 | 360 | 0.0 | 0.0 | 0.00 | 0.00 | 0.00 | 79 | 1017.0 |
| 20260902002057 | 82 | 130 | 0.0 | 0.9 | 0.00 | 0.00 | 0.00 | 80 | 1017.0 |
| 20260902001857 | 82 | 154 | 0.0 | 0.9 | 0.00 | 0.00 | 0.00 | 80 | 1017.0 |
| 20260902001656 | 82 | 170 | 0.0 | 0.0 | 0.00 | 0.00 | 0.00 | 80 | 1017.0 |
| 20260902001357 | 83 | 147 | 0.0 | 0.9 | 0.00 | 0.00 | 0.00 | 77 | 1017.0 |
| 20260902001157 | 83 | 174 | 0.0 | 0.9 | 0.00 | 0.00 | 0.00 | 79 | 1017.0 |
| 20260902000856 | 83 | 360 | 0.0 | 0.0 | 0.00 | 0.00 | 0.00 | 78 | 1017.0 |
| 20260902000456 | 83 | 360 | 0.0 | 0.0 | 0.00 | 0.00 | 0.00 | 77 | 1017.0 |
| 20260902000359 | 83 | 133 | 0.0 | 0.0 | 0.00 | 0.00 | 0.00 | 76 | 1017.0 |
| 20260901235856 | 83 | 153 | 0.9 | 2.6 | 0.00 | 0.00 | 0.00 | 75 | 1017.0 |
| 20260901235656 | 84 | 150 | 0.0 | 1.7 | 0.00 | 0.00 | 0.00 | 75 | 1017.0 |
| 20260901235356 | 84 | 144 | 0.9 | 1.7 | 0.00 | 0.00 | 0.00 | 76 | 1017.0 |
| 20260901234857 | 84 | 136 | 0.0 | 1.7 | 0.00 | 0.00 | 0.00 | 75 | 1017.0 |
| 20260901234556 | 84 | 139 | 0.0 | 0.0 | 0.00 | 0.00 | 0.00 | 74 | 1017.0 |
| 20260901234456 | 85 | 143 | 0.9 | 1.7 | 0.00 | 0.00 | 0.00 | 74 | 1017.0 |
| 20260901234156 | 85 | 141 | 0.0 | 1.7 | 0.00 | 0.00 | 0.00 | 74 | 1017.0 |
| 20260901233656 | 85 | 137 | 0.9 | 1.7 | 0.00 | 0.00 | 0.00 | 73 | 1017.0 |
| 20260901233557 | 85 | 138 | 0.0 | 0.9 | 0.00 | 0.00 | 0.00 | 72 | 1017.0 |
| 20260901233256 | 86 | 170 | 0.0 | 1.7 | 0.00 | 0.00 | 0.00 | 71 | 1018.0 |
| 20260901233156 | 86 | 143 | 0.0 | 1.7 | 0.00 | 0.00 | 0.00 | 71 | 1018.0 |
| 20260901232956 | 86 | 141 | 0.0 | 0.9 | 0.00 | 0.00 | 0.00 | 71 | 1018.0 |
| 20260901232556 | 86 | 155 | 0.0 | 0.9 | 0.00 | 0.00 | 0.00 | 70 | 1018.0 |
| 20260901232456 | 86 | 143 | 0.0 | 0.9 | 0.00 | 0.00 | 0.00 | 69 | 1018.0 |
| 20260901231956 | 87 | 153 | 0.0 | 0.9 | 0.00 | 0.00 | 0.00 | 68 | 1018.0 |
| 20260901231758 | 87 | 120 | 0.0 | 1.7 | 0.00 | 0.00 | 0.00 | 68 | 1018.0 |
| 20260901231457 | 87 | 360 | 0.0 | 0.0 | 0.00 | 0.00 | 0.00 | 67 | 1018.0 |
| 20260901231256 | 87 | 150 | 0.0 | 0.9 | 0.00 | 0.00 | 0.00 | 67 | 1018.0 |
| 20260901231156 | 87 | 145 | 0.0 | 0.9 | 0.00 | 0.00 | 0.00 | 66 | 1018.0 |
| 20260901230956 | 87 | 360 | 0.0 | 0.0 | 0.00 | 0.00 | 0.00 | 67 | 1018.0 |
| 20260901230456 | 88 | 124 | 0.0 | 0.9 | 0.00 | 0.00 | 0.00 | 65 | 1018.0 |
| 20260901230356 | 88 | 130 | 0.0 | 1.7 | 0.00 | 0.00 | 0.00 | 66 | 1018.0 |
| 20260901230256 | 89 | 182 | 0.0 | 0.9 | 0.00 | 0.00 | 0.00 | 66 | 1018.0 |
| 20260901225957 | 89 | 137 | 0.0 | 1.7 | 0.00 | 0.00 | 0.00 | 64 | 1018.0 |
| 20260901225557 | 89 | 155 | 0.0 | 0.9 | 0.00 | 0.00 | 0.00 | 63 | 1018.0 |
| 20260901225456 | 89 | 360 | 0.0 | 0.0 | 0.00 | 0.00 | 0.00 | 63 | 1018.0 |
| 20260901225358 | 89 | 158 | 0.0 | 0.9 | 0.00 | 0.00 | 0.00 | 62 | 1018.0 |
| 20260901224956 | 90 | 360 | 0.0 | 0.0 | 0.00 | 0.00 | 0.00 | 61 | 1018.0 |
| 20260901224856 | 90 | 249 | 0.0 | 0.9 | 0.00 | 0.00 | 0.00 | 60 | 1018.0 |
| 20260901224356 | 91 | 360 | 0.0 | 0.0 | 0.00 | 0.00 | 0.00 | 60 | 1017.0 |
| 20260901223856 | 91 | 261 | 0.9 | 1.7 | 0.00 | 0.00 | 0.00 | 58 | 1017.0 |
| 20260901223357 | 92 | 250 | 0.9 | 1.7 | 0.00 | 0.00 | 0.00 | 56 | 1017.0 |
| 20260901222858 | 92 | 260 | 0.9 | 1.7 | 0.00 | 0.00 | 0.00 | 56 | 1017.0 |
| 20260901222656 | 93 | 249 | 1.7 | 2.6 | 0.00 | 0.00 | 0.00 | 54 | 1017.0 |
| 20260901222457 | 92 | 211 | 0.0 | 1.7 | 0.00 | 0.00 | 0.00 | 55 | 1017.0 |
| 20260901222356 | 92 | 230 | 0.0 | 0.9 | 0.00 | 0.00 | 0.00 | 55 | 1017.0 |
| 20260901222156 | 92 | 172 | 0.0 | 0.0 | 0.00 | 0.00 | 0.00 | 55 | 1017.0 |
| 20260901222056 | 92 | 230 | 0.9 | 2.6 | 0.00 | 0.00 | 0.00 | 55 | 1017.0 |
| 20260901221556 | 92 | 199 | 0.9 | 1.7 | 0.00 | 0.00 | 0.00 | 57 | 1017.0 |
| 20260901221056 | 92 | 137 | 0.0 | 1.7 | 0.00 | 0.00 | 0.00 | 57 | 1017.0 |
| 20260901220957 | 92 | 149 | 0.0 | 0.9 | 0.00 | 0.00 | 0.00 | 57 | 1017.0 |
| 20260901220557 | 92 | 235 | 0.0 | 0.9 | 0.00 | 0.00 | 0.00 | 55 | 1017.0 |
| 20260901220056 | 92 | 236 | 0.9 | 1.7 | 0.00 | 0.00 | 0.00 | 56 | 1017.0 |
| 20260901215956 | 92 | 248 | 0.0 | 1.7 | 0.00 | 0.00 | 0.00 | 55 | 1017.0 |
| 20260901215856 | 92 | 227 | 0.9 | 1.7 | 0.00 | 0.00 | 0.00 | 56 | 1017.0 |
| 20260901215357 | 92 | 183 | 0.0 | 0.9 | 0.00 | 0.00 | 0.00 | 55 | 1017.0 |
| 20260901215057 | 92 | 176 | 0.0 | 0.9 | 0.00 | 0.00 | 0.00 | 55 | 1017.0 |
| 20260901214856 | 93 | 186 | 0.9 | 1.7 | 0.00 | 0.00 | 0.00 | 57 | 1017.0 |
| 20260901214756 | 93 | 204 | 0.0 | 0.9 | 0.00 | 0.00 | 0.00 | 54 | 1017.0 |
| 20260901214256 | 93 | 220 | 0.0 | 0.9 | 0.00 | 0.00 | 0.00 | 55 | 1017.0 |
| 20260901214158 | 93 | 213 | 0.9 | 1.7 | 0.00 | 0.00 | 0.00 | 55 | 1017.0 |
| 20260901213656 | 94 | 132 | 0.0 | 0.9 | 0.00 | 0.00 | 0.00 | 56 | 1017.0 |
| 20260901213356 | 94 | 239 | 1.7 | 2.6 | 0.00 | 0.00 | 0.00 | 52 | 1017.0 |
| 20260901213157 | 94 | 235 | 0.9 | 1.7 | 0.00 | 0.00 | 0.00 | 53 | 1017.0 |
| 20260901213057 | 94 | 228 | 0.9 | 1.7 | 0.00 | 0.00 | 0.00 | 52 | 1017.0 |
| 20260901212656 | 94 | 167 | 0.9 | 1.7 | 0.00 | 0.00 | 0.00 | 52 | 1017.0 |
| 20260901212456 | 94 | 141 | 0.0 | 1.7 | 0.00 | 0.00 | 0.00 | 53 | 1017.0 |
| 20260901212357 | 94 | 149 | 0.0 | 0.9 | 0.00 | 0.00 | 0.00 | 51 | 1017.0 |
| 20260901212157 | 94 | 242 | 0.9 | 1.7 | 0.00 | 0.00 | 0.00 | 52 | 1017.0 |
| 20260901211657 | 94 | 188 | 0.0 | 1.7 | 0.00 | 0.00 | 0.00 | 52 | 1017.0 |
| 20260901211557 | 94 | 171 | 0.0 | 1.7 | 0.00 | 0.00 | 0.00 | 54 | 1017.0 |
| 20260901211056 | 93 | 225 | 0.9 | 1.7 | 0.00 | 0.00 | 0.00 | 54 | 1017.0 |
| 20260901210957 | 92 | 271 | 0.9 | 3.5 | 0.00 | 0.00 | 0.00 | 54 | 1017.0 |
| 20260901210556 | 92 | 199 | 0.9 | 1.7 | 0.00 | 0.00 | 0.00 | 54 | 1017.0 |
| 20260901210357 | 92 | 228 | 0.9 | 1.7 | 0.00 | 0.00 | 0.00 | 53 | 1017.0 |
| 20260901210057 | 92 | 243 | 0.9 | 1.7 | 0.00 | 0.00 | 0.00 | 55 | 1017.0 |
| 20260901205656 | 91 | 245 | 0.0 | 1.7 | 0.00 | 0.00 | 0.00 | 54 | 1017.0 |
| 20260901205556 | 91 | 225 | 0.9 | 1.7 | 0.00 | 0.00 | 0.00 | 55 | 1017.0 |
| 20260901205056 | 91 | 259 | 0.9 | 2.6 | 0.00 | 0.00 | 0.00 | 55 | 1017.0 |
| 20260901204756 | 91 | 168 | 0.9 | 1.7 | 0.00 | 0.00 | 0.00 | 55 | 1018.0 |
| 20260901204557 | 91 | 233 | 0.0 | 0.9 | 0.00 | 0.00 | 0.00 | 57 | 1018.0 |
| 20260901204057 | 91 | 183 | 0.0 | 0.9 | 0.00 | 0.00 | 0.00 | 56 | 1018.0 |
| 20260901203556 | 91 | 156 | 1.7 | 1.7 | 0.00 | 0.00 | 0.00 | 56 | 1018.0 |
| 20260901203356 | 91 | 238 | 0.0 | 0.9 | 0.00 | 0.00 | 0.00 | 55 | 1018.0 |
| 20260901203057 | 91 | 177 | 0.9 | 2.6 | 0.00 | 0.00 | 0.00 | 57 | 1018.0 |
| 20260901203000 | 92 | 218 | 0.0 | 0.9 | 0.00 | 0.00 | 0.00 | 57 | 1018.0 |
| 20260901202856 | 92 | 261 | 1.7 | 1.7 | 0.00 | 0.00 | 0.00 | 56 | 1018.0 |
| 20260901202557 | 91 | 267 | 0.9 | 2.6 | 0.00 | 0.00 | 0.00 | 56 | 1018.0 |
| 20260901202458 | 91 | 332 | 1.7 | 3.5 | 0.00 | 0.00 | 0.00 | 56 | 1018.0 |
| 20260901202356 | 91 | 260 | 0.9 | 2.6 | 0.00 | 0.00 | 0.00 | 56 | 1018.0 |
| 20260901202256 | 91 | 245 | 0.0 | 0.9 | 0.00 | 0.00 | 0.00 | 55 | 1018.0 |
| 20260901201858 | 92 | 143 | 0.0 | 1.7 | 0.00 | 0.00 | 0.00 | 53 | 1018.0 |
| 20260901201757 | 92 | 199 | 0.9 | 1.7 | 0.00 | 0.00 | 0.00 | 54 | 1018.0 |
| 20260901201657 | 92 | 192 | 0.9 | 1.7 | 0.00 | 0.00 | 0.00 | 54 | 1018.0 |
| 20260901201456 | 92 | 196 | 0.9 | 1.7 | 0.00 | 0.00 | 0.00 | 54 | 1018.0 |
| 20260901201256 | 92 | 233 | 0.9 | 1.7 | 0.00 | 0.00 | 0.00 | 54 | 1018.0 |
| 20260901200756 | 91 | 234 | 0.9 | 2.6 | 0.00 | 0.00 | 0.00 | 55 | 1018.0 |
| 20260901200656 | 91 | 255 | 1.7 | 2.6 | 0.00 | 0.00 | 0.00 | 55 | 1018.0 |
| 20260901200157 | 91 | 183 | 0.9 | 1.7 | 0.00 | 0.00 | 0.00 | 54 | 1018.0 |
| 20260901200056 | 91 | 173 | 0.9 | 1.7 | 0.00 | 0.00 | 0.00 | 55 | 1018.0 |